createdAt,value
2023-10-23T00:00:04.774Z,99285.23
2023-10-23T00:02:39.546Z,99288.41
2023-10-23T00:05:12.025Z,99292.27
2023-10-23T00:07:43.662Z,99291.76
2023-10-23T00:10:15.641Z,99290.68
2023-10-23T00:12:48.430Z,99294.19
2023-10-23T00:15:20.186Z,99298.91
2023-10-23T00:17:51.732Z,99297.83
2023-10-23T00:20:23.646Z,99295.20
2023-10-23T00:22:55.339Z,99298.92
2023-10-23T00:25:26.853Z,99309.44
2023-10-23T00:27:58.393Z,99312.21
2023-10-23T00:30:33.417Z,99309.61
2023-10-23T00:33:05.348Z,99307.69
2023-10-23T00:35:38.196Z,99309.25
2023-10-23T00:38:10.587Z,99308.96
2023-10-23T00:40:42.315Z,99307.77
2023-10-23T00:43:22.448Z,99308.64
2023-10-23T00:45:57.860Z,99312.86
2023-10-23T00:48:30.176Z,99310.92
2023-10-23T00:51:03.301Z,99309.52
2023-10-23T00:53:37.620Z,99314.58
2023-10-23T00:56:11.626Z,99311.40
2023-10-23T00:58:44.708Z,99314.13
2023-10-23T01:01:16.883Z,99315.39
2023-10-23T01:03:48.746Z,99317.48
2023-10-23T01:06:20.474Z,99318.71
2023-10-23T01:08:52.166Z,99318.74
2023-10-23T01:11:24.045Z,99318.55
2023-10-23T01:13:56.065Z,99313.80
2023-10-23T01:16:27.792Z,99318.55
2023-10-23T01:18:59.268Z,99316.08
2023-10-23T01:21:30.988Z,99316.44
2023-10-23T01:24:08.079Z,99319.11
2023-10-23T01:26:39.650Z,99316.98
2023-10-23T01:29:11.259Z,99312.73
2023-10-23T01:31:43.144Z,99311.33
2023-10-23T01:34:14.824Z,99308.48
2023-10-23T01:36:46.687Z,99310.57
2023-10-23T01:39:18.222Z,99314.63
2023-10-23T01:41:49.896Z,99309.01
2023-10-23T01:44:21.600Z,99309.00
2023-10-23T01:46:53.231Z,99313.52
2023-10-23T01:49:24.826Z,99317.98
2023-10-23T01:51:57.351Z,99316.59
2023-10-23T01:54:29.049Z,99322.77
2023-10-23T01:57:01.682Z,99324.17
2023-10-23T01:59:33.231Z,99327.92
2023-10-23T02:02:05.096Z,99329.25
2023-10-23T02:04:38.061Z,99324.14
2023-10-23T02:07:10.061Z,99322.24
2023-10-23T02:09:41.627Z,99323.86
2023-10-23T02:12:13.231Z,99326.68
2023-10-23T02:14:45.087Z,99324.21
2023-10-23T02:17:17.544Z,99325.52
2023-10-23T02:19:49.236Z,99327.96
2023-10-23T02:22:21.298Z,99332.98
2023-10-23T02:24:53.438Z,99334.41
2023-10-23T02:27:25.174Z,99333.37
2023-10-23T02:29:56.726Z,99331.60
2023-10-23T02:32:28.295Z,99335.68
2023-10-23T02:35:00.173Z,99335.11
2023-10-23T02:37:32.208Z,99343.58
2023-10-23T02:40:05.128Z,99345.98
2023-10-23T02:42:36.956Z,99345.88
2023-10-23T02:45:11.504Z,99347.48
2023-10-23T02:47:43.318Z,99349.53
2023-10-23T02:50:15.642Z,99345.66
2023-10-23T02:52:47.315Z,99350.43
2023-10-23T02:55:19.212Z,99355.22
2023-10-23T02:57:51.203Z,99354.20
2023-10-23T03:00:23.644Z,99350.48
2023-10-23T03:02:55.558Z,99356.82
2023-10-23T03:05:27.626Z,99349.76
2023-10-23T03:07:59.851Z,99347.27
2023-10-23T03:10:31.456Z,99347.05
2023-10-23T03:13:04.031Z,99346.71
2023-10-23T03:15:37.422Z,99340.45
2023-10-23T03:18:09.568Z,99344.21
2023-10-23T03:20:42.045Z,99341.28
2023-10-23T03:23:13.564Z,99345.67
2023-10-23T03:25:47.022Z,99344.95
2023-10-23T03:28:18.551Z,99348.16
2023-10-23T03:30:50.073Z,99344.83
2023-10-23T03:33:21.982Z,99345.20
2023-10-23T03:35:53.609Z,99345.02
2023-10-23T03:38:25.472Z,99346.08
2023-10-23T03:41:01.564Z,99343.27
2023-10-23T03:43:33.702Z,99348.35
2023-10-23T03:46:08.664Z,99349.38
2023-10-23T03:48:41.032Z,99359.21
2023-10-23T03:51:13.019Z,99356.09
2023-10-23T03:53:44.944Z,99357.16
2023-10-23T03:56:16.378Z,99357.16
2023-10-23T03:58:48.602Z,99362.12
2023-10-23T04:01:20.153Z,99364.23
2023-10-23T04:03:51.924Z,99360.19
2023-10-23T04:06:23.522Z,99354.70
2023-10-23T04:08:55.966Z,99355.73
2023-10-23T04:11:27.621Z,99355.77
2023-10-23T04:13:59.137Z,99354.20
2023-10-23T04:16:30.726Z,99355.06
2023-10-23T04:19:02.486Z,99352.08
2023-10-23T04:21:40.138Z,99352.09
2023-10-23T04:24:12.596Z,99349.61
2023-10-23T04:26:44.171Z,99347.67
2023-10-23T04:29:15.992Z,99346.27
2023-10-23T04:31:47.597Z,99342.55
2023-10-23T04:34:19.088Z,99347.48
2023-10-23T04:36:51.163Z,99352.38
2023-10-23T04:39:22.988Z,99353.28
2023-10-23T04:41:54.726Z,99352.79
2023-10-23T04:44:26.693Z,99350.27
2023-10-23T04:46:58.308Z,99351.29
2023-10-23T04:49:29.901Z,99352.73
2023-10-23T04:52:01.378Z,99353.64
2023-10-23T04:54:33.032Z,99356.11
2023-10-23T04:57:05.377Z,99358.55
2023-10-23T04:59:39.130Z,99358.50
2023-10-23T05:02:11.109Z,99356.15
2023-10-23T05:04:42.770Z,99356.42
2023-10-23T05:07:16.144Z,99359.71
2023-10-23T05:09:47.846Z,99360.63
2023-10-23T05:12:19.417Z,99359.92
2023-10-23T05:14:52.204Z,99359.58
2023-10-23T05:17:25.309Z,99358.10
2023-10-23T05:19:57.086Z,99360.88
2023-10-23T05:22:28.749Z,99363.42
2023-10-23T05:25:00.397Z,99365.73
2023-10-23T05:27:32.106Z,99360.90
2023-10-23T05:30:05.173Z,99358.79
2023-10-23T05:32:39.005Z,99362.33
2023-10-23T05:35:15.822Z,99362.10
2023-10-23T05:37:47.809Z,99365.10
2023-10-23T05:40:20.049Z,99361.55
2023-10-23T05:42:51.631Z,99356.10
2023-10-23T05:45:23.622Z,99363.36
2023-10-23T05:47:55.143Z,99364.77
2023-10-23T05:50:26.883Z,99368.29
2023-10-23T05:52:58.730Z,99369.31
2023-10-23T05:55:30.260Z,99372.08
2023-10-23T05:58:01.856Z,99376.38
2023-10-23T06:00:34.067Z,99375.71
2023-10-23T06:03:05.856Z,99375.01
2023-10-23T06:05:43.186Z,99372.53
2023-10-23T06:08:14.746Z,99373.23
2023-10-23T06:10:47.210Z,99372.86
2023-10-23T06:13:18.784Z,99374.64
2023-10-23T06:15:50.575Z,99374.99
2023-10-23T06:18:22.149Z,99376.95
2023-10-23T06:21:04.545Z,99376.59
2023-10-23T06:23:38.606Z,99376.42
2023-10-23T06:26:11.206Z,99374.65
2023-10-23T06:28:42.695Z,99376.95
2023-10-23T06:31:14.965Z,99382.59
2023-10-23T06:33:48.085Z,99384.35
2023-10-23T06:36:19.742Z,99384.36
2023-10-23T06:38:51.866Z,99387.88
2023-10-23T06:41:24.065Z,99385.23
2023-10-23T06:43:56.715Z,99386.45
2023-10-23T06:46:28.360Z,99389.47
2023-10-23T06:49:00.157Z,99389.45
2023-10-23T06:51:31.948Z,99398.73
2023-10-23T06:54:05.227Z,99397.10
2023-10-23T06:56:37.137Z,99402.65
2023-10-23T06:59:08.759Z,99403.03
2023-10-23T07:01:45.005Z,99401.96
2023-10-23T07:04:17.232Z,99402.67
2023-10-23T07:06:49.022Z,99401.09
2023-10-23T07:09:20.719Z,99404.95
2023-10-23T07:11:53.230Z,99401.56
2023-10-23T07:14:24.779Z,99397.65
2023-10-23T07:16:56.223Z,99398.85
2023-10-23T07:19:27.944Z,99396.80
2023-10-23T07:22:00.001Z,99394.11
2023-10-23T07:24:31.727Z,99396.59
2023-10-23T07:27:03.962Z,99397.67
2023-10-23T07:29:35.786Z,99399.28
2023-10-23T07:32:08.913Z,99398.35
2023-10-23T07:34:40.945Z,99397.51
2023-10-23T07:37:13.517Z,99397.30
2023-10-23T07:39:48.580Z,99399.04
2023-10-23T07:42:20.629Z,99401.31
2023-10-23T07:44:52.578Z,99403.52
2023-10-23T07:47:24.257Z,99405.60
2023-10-23T07:49:56.251Z,99401.30
2023-10-23T07:52:28.183Z,99398.52
2023-10-23T07:55:01.079Z,99400.63
2023-10-23T07:57:34.123Z,99402.06
2023-10-23T08:00:07.318Z,99405.25
2023-10-23T08:02:39.694Z,99407.45
2023-10-23T08:05:13.005Z,99404.45
2023-10-23T08:07:44.671Z,99404.26
2023-10-23T08:10:16.811Z,99400.39
2023-10-23T08:12:49.109Z,99403.56
2023-10-23T08:15:21.286Z,99400.52
2023-10-23T08:17:53.385Z,99396.80
2023-10-23T08:20:25.397Z,99390.58
2023-10-23T08:22:57.179Z,99382.39
2023-10-23T08:25:28.966Z,99381.02
2023-10-23T08:28:00.982Z,99377.70
2023-10-23T08:30:32.651Z,99380.32
2023-10-23T08:33:06.438Z,99384.07
2023-10-23T08:35:38.403Z,99385.96
2023-10-23T08:38:10.026Z,99384.40
2023-10-23T08:40:42.013Z,99382.79
2023-10-23T08:43:14.074Z,99379.80
2023-10-23T08:45:48.698Z,99381.11
2023-10-23T08:48:20.281Z,99383.30
2023-10-23T08:50:53.101Z,99378.58
2023-10-23T08:53:32.560Z,99378.39
2023-10-23T08:56:06.671Z,99379.36
2023-10-23T08:58:40.342Z,99376.64
2023-10-23T09:01:11.954Z,99379.17
2023-10-23T09:04:03.540Z,99380.51
2023-10-23T09:06:37.186Z,99381.86
2023-10-23T09:09:10.148Z,99384.70
2023-10-23T09:11:44.650Z,99374.48
2023-10-23T09:14:26.488Z,99374.59
2023-10-23T09:17:00.646Z,99371.30
2023-10-23T09:19:35.851Z,99371.67
2023-10-23T09:22:08.871Z,99372.50
2023-10-23T09:24:41.203Z,99371.88
2023-10-23T09:27:12.963Z,99362.79
2023-10-23T09:29:44.540Z,99353.35
2023-10-23T09:32:17.227Z,99347.83
2023-10-23T09:34:49.083Z,99350.41
2023-10-23T09:37:21.160Z,99347.49
2023-10-23T09:39:54.941Z,99341.65
2023-10-23T09:42:34.662Z,99333.73
2023-10-23T09:45:08.691Z,99335.61
2023-10-23T09:47:41.475Z,99336.02
2023-10-23T09:50:14.273Z,99332.81
2023-10-23T09:52:46.952Z,99328.10
2023-10-23T09:55:21.342Z,99327.10
2023-10-23T09:57:55.737Z,99324.92
2023-10-23T10:00:29.808Z,99321.67
2023-10-23T10:03:06.220Z,99323.92
2023-10-23T10:05:46.638Z,99314.48
2023-10-23T10:08:20.998Z,99315.08
2023-10-23T10:10:53.729Z,99311.47
2023-10-23T10:13:27.285Z,99307.84
2023-10-23T10:16:00.696Z,99305.52
2023-10-23T10:18:34.319Z,99308.61
2023-10-23T10:21:12.111Z,99307.23
2023-10-23T10:23:44.731Z,99301.13
2023-10-23T10:26:16.855Z,99294.02
2023-10-23T10:28:56.498Z,99289.58
2023-10-23T10:31:29.306Z,99285.48
2023-10-23T10:34:27.132Z,99287.72
2023-10-23T10:36:54.005Z,99280.76
2023-10-23T10:39:54.371Z,99274.93
2023-10-23T10:42:27.745Z,99269.34
2023-10-23T10:45:01.444Z,99262.80
2023-10-23T10:47:40.917Z,99257.77
2023-10-23T10:50:13.424Z,99253.58
2023-10-23T10:52:46.988Z,99255.38
2023-10-23T10:55:19.396Z,99256.90
2023-10-23T10:57:51.492Z,99253.91
2023-10-23T11:00:24.455Z,99251.31
2023-10-23T11:02:57.956Z,99251.02
2023-10-23T11:05:30.074Z,99249.52
2023-10-23T11:08:02.154Z,99249.52
2023-10-23T11:10:34.369Z,99245.70
2023-10-23T11:13:07.717Z,99241.52
2023-10-23T11:15:39.508Z,99240.70
2023-10-23T11:18:11.660Z,99235.60
2023-10-23T11:20:43.277Z,99232.98
2023-10-23T11:23:19.282Z,99226.38
2023-10-23T11:25:55.756Z,99224.67
2023-10-23T11:28:28.301Z,99217.86
2023-10-23T11:31:01.652Z,99216.44
2023-10-23T11:33:33.382Z,99214.82
2023-10-23T11:36:08.626Z,99216.90
2023-10-23T11:38:41.324Z,99210.04
2023-10-23T11:41:13.810Z,99206.23
2023-10-23T11:43:46.365Z,99209.29
2023-10-23T11:46:18.087Z,99200.82
2023-10-23T11:48:51.382Z,99203.79
2023-10-23T11:51:23.784Z,99199.47
2023-10-23T11:53:57.378Z,99196.80
2023-10-23T11:56:33.726Z,99189.92
2023-10-23T11:59:05.867Z,99188.14
2023-10-23T12:01:37.758Z,99185.65
2023-10-23T12:04:10.113Z,99185.20
2023-10-23T12:06:42.784Z,99181.46
2023-10-23T12:09:15.065Z,99179.25
2023-10-23T12:11:46.745Z,99172.13
2023-10-23T12:14:18.305Z,99168.57
2023-10-23T12:16:50.014Z,99164.23
2023-10-23T12:19:22.214Z,99161.66
2023-10-23T12:21:54.090Z,99165.01
2023-10-23T12:24:26.392Z,99158.11
2023-10-23T12:26:59.214Z,99157.14
2023-10-23T12:29:31.376Z,99157.11
2023-10-23T12:32:05.599Z,99155.88
2023-10-23T12:34:38.009Z,99151.34
2023-10-23T12:37:09.832Z,99145.42
2023-10-23T12:39:41.673Z,99138.63
2023-10-23T12:42:13.278Z,99133.98
2023-10-23T12:44:46.191Z,99129.36
2023-10-23T12:47:18.313Z,99126.35
2023-10-23T12:49:50.563Z,99121.08
2023-10-23T12:52:22.255Z,99122.30
2023-10-23T12:54:53.903Z,99118.98
2023-10-23T12:57:25.745Z,99114.75
2023-10-23T12:59:57.700Z,99116.97
2023-10-23T13:02:29.656Z,99110.66
2023-10-23T13:05:02.021Z,99099.08
2023-10-23T13:07:33.897Z,99094.66
2023-10-23T13:10:06.933Z,99089.71
2023-10-23T13:12:38.926Z,99092.92
2023-10-23T13:15:11.740Z,99092.56
2023-10-23T13:17:43.463Z,99089.95
2023-10-23T13:21:27.343Z,99087.64
2023-10-23T13:23:09.768Z,99081.83
2023-10-23T13:25:42.221Z,99077.73
2023-10-23T13:28:14.499Z,99076.92
2023-10-23T13:30:46.542Z,99074.57
2023-10-23T13:33:19.553Z,99075.48
2023-10-23T13:35:51.258Z,99063.60
2023-10-23T13:38:23.050Z,99059.60
2023-10-23T13:40:57.225Z,99051.02
2023-10-23T13:43:29.200Z,99049.09
2023-10-23T13:46:01.467Z,99043.24
2023-10-23T13:48:33.280Z,99039.91
2023-10-23T13:51:05.721Z,99040.33
2023-10-23T13:53:38.180Z,99026.90
2023-10-23T13:56:10.644Z,99027.48
2023-10-23T13:58:42.218Z,99016.96
2023-10-23T14:01:14.062Z,99008.06
2023-10-23T14:03:46.107Z,99006.66
2023-10-23T14:06:19.045Z,99007.98
2023-10-23T14:09:42.900Z,99002.11
2023-10-23T14:11:59.496Z,98997.39
2023-10-23T14:14:33.201Z,98990.31
2023-10-23T14:17:05.223Z,98983.92
2023-10-23T14:19:46.543Z,98978.58
2023-10-23T14:22:20.418Z,98973.98
2023-10-23T14:24:52.305Z,98966.75
2023-10-23T14:27:24.095Z,98963.30
2023-10-23T14:29:55.802Z,98959.88
2023-10-23T14:32:27.977Z,98953.30
2023-10-23T14:35:00.453Z,98948.16
2023-10-23T14:37:32.241Z,98941.06
2023-10-23T14:40:04.545Z,98933.81
2023-10-23T14:42:36.455Z,98930.76
2023-10-23T14:45:10.063Z,98925.33
2023-10-23T14:47:42.180Z,98918.96
2023-10-23T14:50:14.427Z,98914.32
2023-10-23T14:52:46.512Z,98910.34
2023-10-23T14:55:18.498Z,98911.38
2023-10-23T14:57:50.254Z,98903.05
2023-10-23T15:00:22.600Z,98901.61
2023-10-23T15:02:54.337Z,98896.33
2023-10-23T15:05:26.123Z,98895.08
2023-10-23T15:07:57.837Z,98890.31
2023-10-23T15:10:29.326Z,98886.73
2023-10-23T15:13:01.221Z,98889.50
2023-10-23T15:15:34.858Z,98884.98
2023-10-23T15:18:06.887Z,98879.75
2023-10-23T15:20:38.947Z,98883.48
2023-10-23T15:23:10.895Z,98878.81
2023-10-23T15:25:43.580Z,98868.33
2023-10-23T15:28:15.548Z,98864.71
2023-10-23T15:30:54.702Z,98864.66
2023-10-23T15:33:27.350Z,98861.90
2023-10-23T15:36:02.458Z,98857.62
2023-10-23T15:38:35.463Z,98855.56
2023-10-23T15:41:10.000Z,98858.76
2023-10-23T15:43:44.462Z,98856.33
2023-10-23T15:46:17.475Z,98846.15
2023-10-23T15:48:49.763Z,98845.05
2023-10-23T15:51:21.501Z,98849.44
2023-10-23T15:53:54.041Z,98848.63
2023-10-23T15:56:26.124Z,98849.85
2023-10-23T15:58:57.883Z,98853.43
2023-10-23T16:01:29.845Z,98847.50
2023-10-23T16:04:02.137Z,98841.36
2023-10-23T16:06:42.367Z,98834.23
2023-10-23T16:09:22.016Z,98823.58
2023-10-23T16:12:09.853Z,98816.61
2023-10-23T16:14:55.790Z,98818.54
2023-10-23T16:17:29.361Z,98813.41
2023-10-23T16:20:01.348Z,98814.77
2023-10-23T16:22:33.176Z,98817.73
2023-10-23T16:25:07.073Z,98820.71
2023-10-23T16:27:39.042Z,98819.14
2023-10-23T16:30:12.219Z,98814.42
2023-10-23T16:32:46.170Z,98806.23
2023-10-23T16:35:18.246Z,98801.23
2023-10-23T16:37:50.363Z,98801.59
2023-10-23T16:40:22.999Z,98802.89
2023-10-23T16:42:55.263Z,98806.33
2023-10-23T16:45:28.936Z,98811.37
2023-10-23T16:48:01.292Z,98812.08
2023-10-23T16:50:33.298Z,98813.21
2023-10-23T16:53:05.867Z,98811.21
2023-10-23T16:55:38.189Z,98803.44
2023-10-23T16:58:10.128Z,98804.22
2023-10-23T17:00:42.022Z,98808.60
2023-10-23T17:03:14.059Z,98813.85
2023-10-23T17:05:46.113Z,98817.07
2023-10-23T17:08:19.442Z,98818.60
2023-10-23T17:10:52.109Z,98818.67
2023-10-23T17:13:24.195Z,98823.31
2023-10-23T17:15:57.093Z,98820.60
2023-10-23T17:18:29.064Z,98816.15
2023-10-23T17:21:03.475Z,98815.55
2023-10-23T17:23:35.876Z,98814.04
2023-10-23T17:26:07.865Z,98814.14
2023-10-23T17:28:40.072Z,98814.71
2023-10-23T17:31:12.014Z,98816.17
2023-10-23T17:33:44.011Z,98826.38
2023-10-23T17:36:16.033Z,98832.71
2023-10-23T17:38:47.828Z,98838.69
2023-10-23T17:41:20.853Z,98849.66
2023-10-23T17:43:53.123Z,98860.20
2023-10-23T17:46:25.403Z,98869.95
2023-10-23T17:48:57.256Z,98867.65
2023-10-23T17:51:29.577Z,98867.77
2023-10-23T17:54:05.973Z,98870.09
2023-10-23T17:56:38.760Z,98876.46
2023-10-23T17:59:10.876Z,98880.42
2023-10-23T18:01:45.248Z,98874.16
2023-10-23T18:04:17.245Z,98867.08
2023-10-23T18:06:49.273Z,98868.02
2023-10-23T18:09:21.644Z,98863.34
2023-10-23T18:11:53.526Z,98858.41
2023-10-23T18:14:25.995Z,98848.69
2023-10-23T18:16:58.441Z,98838.70
2023-10-23T18:19:30.471Z,98834.44
2023-10-23T18:22:03.573Z,98830.49
2023-10-23T18:24:35.410Z,98828.63
2023-10-23T18:27:07.783Z,98819.71
2023-10-23T18:29:39.914Z,98802.81
2023-10-23T18:32:12.040Z,98794.13
2023-10-23T18:34:43.918Z,98785.96
2023-10-23T18:37:15.827Z,98786.50
2023-10-23T18:39:47.817Z,98782.80
2023-10-23T18:42:19.718Z,98788.10
2023-10-23T18:44:51.378Z,98783.87
2023-10-23T18:47:23.484Z,98788.75
2023-10-23T18:49:55.471Z,98796.08
2023-10-23T18:52:27.469Z,98798.48
2023-10-23T18:54:59.251Z,98796.17
2023-10-23T18:57:31.210Z,98796.86
2023-10-23T19:00:03.113Z,98784.83
2023-10-23T19:02:35.093Z,98780.10
2023-10-23T19:05:08.341Z,98773.61
2023-10-23T19:07:40.377Z,98766.31
2023-10-23T19:10:13.164Z,98768.52
2023-10-23T19:12:45.031Z,98767.66
2023-10-23T19:15:17.054Z,98768.84
2023-10-23T19:17:51.419Z,98764.25
2023-10-23T19:20:23.787Z,98762.58
2023-10-23T19:22:55.856Z,98760.31
2023-10-23T19:25:28.770Z,98757.97
2023-10-23T19:28:01.737Z,98759.34
2023-10-23T19:30:35.064Z,98771.71
2023-10-23T19:33:08.109Z,98767.34
2023-10-23T19:35:41.727Z,98760.08
2023-10-23T19:38:14.982Z,98758.27
2023-10-23T19:40:52.364Z,98759.71
2023-10-23T19:43:28.169Z,98750.95
2023-10-23T19:46:02.715Z,98751.48
2023-10-23T19:48:35.827Z,98743.47
2023-10-23T19:51:09.153Z,98747.23
2023-10-23T19:53:48.394Z,98743.85
2023-10-23T19:56:28.081Z,98743.36
2023-10-23T19:59:02.455Z,98754.91
2023-10-23T20:01:34.753Z,98744.14
2023-10-23T20:04:09.039Z,98740.23
2023-10-23T20:06:41.132Z,98727.85
2023-10-23T20:09:13.051Z,98723.65
2023-10-23T20:11:45.072Z,98726.03
2023-10-23T20:14:17.732Z,98722.79
2023-10-23T20:16:50.162Z,98723.44
2023-10-23T20:19:22.591Z,98716.54
2023-10-23T20:21:58.247Z,98711.33
2023-10-23T20:24:30.220Z,98707.82
2023-10-23T20:27:02.035Z,98707.60
2023-10-23T20:29:34.272Z,98708.49
2023-10-23T20:32:06.692Z,98709.14
2023-10-23T20:34:38.562Z,98702.48
2023-10-23T20:37:10.515Z,98696.07
2023-10-23T20:39:42.765Z,98688.29
2023-10-23T20:42:14.765Z,98680.69
2023-10-23T20:44:47.237Z,98676.98
2023-10-23T20:47:19.084Z,98668.38
2023-10-23T20:49:51.422Z,98658.64
2023-10-23T20:52:23.726Z,98645.05
2023-10-23T20:54:55.628Z,98632.77
2023-10-23T20:57:27.978Z,98625.79
2023-10-23T21:00:00.226Z,98623.89
2023-10-23T21:02:32.440Z,98620.67
2023-10-23T21:05:05.179Z,98615.95
2023-10-23T21:07:37.842Z,98614.14
2023-10-23T21:10:11.526Z,98618.23
2023-10-23T21:12:43.900Z,98614.48
2023-10-23T21:15:16.061Z,98607.31
2023-10-23T21:17:47.999Z,98604.59
2023-10-23T21:20:20.121Z,98611.85
2023-10-23T21:22:52.655Z,98605.27
2023-10-23T21:25:24.432Z,98596.27
2023-10-23T21:27:58.239Z,98603.58
2023-10-23T21:30:30.150Z,98604.55
2023-10-23T21:33:02.443Z,98603.51
2023-10-23T21:35:34.489Z,98602.83
2023-10-23T21:38:06.136Z,98601.70
2023-10-23T21:40:38.392Z,98593.33
2023-10-23T21:43:10.312Z,98582.38
2023-10-23T21:45:42.261Z,98582.90
2023-10-23T21:48:15.125Z,98576.41
2023-10-23T21:50:48.565Z,98586.59
2023-10-23T21:53:21.573Z,98586.15
2023-10-23T21:55:56.335Z,98576.78
2023-10-23T21:59:02.726Z,98577.28
2023-10-23T22:01:23.297Z,98582.17
2023-10-23T22:03:56.651Z,98573.69
2023-10-23T22:06:30.025Z,98570.92
2023-10-23T22:09:02.843Z,98565.66
2023-10-23T22:11:35.986Z,98569.56
2023-10-23T22:14:09.435Z,98556.50
2023-10-23T22:16:41.545Z,98553.16
2023-10-23T22:19:17.365Z,98549.80
2023-10-23T22:21:49.344Z,98551.79
2023-10-23T22:24:21.161Z,98553.71
2023-10-23T22:26:52.939Z,98546.00
2023-10-23T22:29:24.786Z,98542.51
2023-10-23T22:31:58.049Z,98540.65
2023-10-23T22:34:30.601Z,98537.85
2023-10-23T22:37:59.557Z,98536.91
2023-10-23T22:39:54.074Z,98533.73
2023-10-23T22:42:26.229Z,98530.09
2023-10-23T22:44:58.433Z,98525.80
2023-10-23T22:47:30.231Z,98527.09
2023-10-23T22:50:03.387Z,98517.76
2023-10-23T22:52:38.944Z,98513.81
2023-10-23T22:55:15.926Z,98510.77
2023-10-23T22:57:49.962Z,98516.95
2023-10-23T23:00:23.432Z,98510.83
2023-10-23T23:02:56.985Z,98509.81
2023-10-23T23:05:30.378Z,98514.41
2023-10-23T23:08:03.273Z,98506.40
2023-10-23T23:10:36.442Z,98508.63
2023-10-23T23:13:09.082Z,98513.04
2023-10-23T23:15:42.175Z,98515.19
2023-10-23T23:18:20.962Z,98515.91
2023-10-23T23:20:54.913Z,98523.54
2023-10-23T23:23:27.268Z,98526.64
2023-10-23T23:25:59.023Z,98523.96
2023-10-23T23:28:30.624Z,98522.53
2023-10-23T23:31:02.647Z,98519.66
2023-10-23T23:33:34.364Z,98516.46
2023-10-23T23:36:07.160Z,98518.11
2023-10-23T23:38:39.731Z,98515.89
2023-10-23T23:41:11.357Z,98517.38
2023-10-23T23:43:43.178Z,98520.83
2023-10-23T23:46:15.601Z,98514.41
2023-10-23T23:48:47.279Z,98523.48
2023-10-23T23:51:18.997Z,98525.02
2023-10-23T23:53:50.546Z,98522.09
2023-10-23T23:56:22.437Z,98517.17
2023-10-23T23:58:54.534Z,98525.49
